Time;durP1;ratioP1;P1;durP2;ratioP2;P2;SDS_P1;SDS_P2;PMS_P1;PMS_P2;Temp;Humidity;BMP_temperature;BMP_pressure;BME280_temperature;BME280_humidity;BME280_pressure;Samples;Min_cycle;Max_cycle;Signal;HPM_P1;HPM_P2
2024/01/05 00:00:35;;;;;;;13.25;9.57;;;;;;;4.31;71.06;93477.63;5035130;28;20028;-75
2024/01/05 00:03:00;;;;;;;10.05;7.63;;;;;;;4.75;70.55;93543.19;5038502;28;20554;-75
2024/01/05 00:05:26;;;;;;;12.77;8.98;;;;;;;4.86;70.26;93528.03;5019190;28;20036;-76
2024/01/05 00:07:52;;;;;;;16.23;10.27;;;;;;;5.10;68.90;93548.00;5037954;28;20128;-75
2024/01/05 00:10:17;;;;;;;13.13;9.35;;;;;;;5.29;67.81;93536.66;5036927;28;20037;-75
2024/01/05 00:12:43;;;;;;;13.07;8.70;;;;;;;5.23;67.12;93548.38;5020157;28;20094;-76
2024/01/05 00:15:11;;;;;;;13.75;9.60;;;;;;;5.13;66.84;93520.28;5039473;28;20048;-76
2024/01/05 00:17:37;;;;;;;12.25;8.30;;;;;;;5.13;67.32;93552.72;5033598;28;20094;-75
2024/01/05 00:20:04;;;;;;;13.82;8.52;;;;;;;5.21;66.65;93545.22;5037194;28;20051;-78
2024/01/05 00:22:30;;;;;;;11.18;8.32;;;;;;;5.45;65.55;93570.44;5019222;28;24007;-75
2024/01/05 00:24:55;;;;;;;14.48;8.40;;;;;;;5.28;66.25;93572.03;5038478;28;20391;-77
2024/01/05 00:27:20;;;;;;;12.77;8.43;;;;;;;4.46;69.93;93547.75;5038240;28;20733;-77
2024/01/05 00:29:46;;;;;;;8.93;7.20;;;;;;;4.41;69.26;93537.28;5036923;28;20970;-75
2024/01/05 00:32:11;;;;;;;13.25;8.77;;;;;;;4.49;70.52;93560.38;5038655;28;20076;-74
2024/01/05 00:34:36;;;;;;;13.45;8.60;;;;;;;4.69;69.77;93555.66;5023609;28;20090;-75
2024/01/05 00:37:03;;;;;;;14.23;8.35;;;;;;;4.83;68.06;93547.84;5033558;28;20477;-75
2024/01/05 00:39:28;;;;;;;10.38;8.13;;;;;;;4.74;67.87;93546.13;5038764;28;20039;-75
2024/01/05 00:41:54;;;;;;;15.48;8.68;;;;;;;4.82;67.88;93561.28;5042575;28;20174;-76
2024/01/05 00:44:19;;;;;;;8.00;6.35;;;;;;;4.92;67.74;93554.03;5041079;28;20044;-75
2024/01/05 00:46:45;;;;;;;3.90;2.63;;;;;;;4.75;63.38;93532.66;5016204;28;20568;-75
2024/01/05 00:49:10;;;;;;;9.82;6.65;;;;;;;4.44;67.30;93570.97;5045290;28;20485;-75
2024/01/05 00:51:36;;;;;;;14.13;9.95;;;;;;;4.61;69.00;93577.34;5025889;28;20520;-75
2024/01/05 00:54:04;;;;;;;13.52;8.60;;;;;;;4.92;67.69;93575.13;5039681;28;20109;-76
2024/01/05 00:56:30;;;;;;;12.15;6.75;;;;;;;4.79;68.03;93549.47;5018825;28;20036;-76
2024/01/05 00:58:55;;;;;;;14.98;8.25;;;;;;;4.80;67.64;93577.38;5038996;28;20628;-76
2024/01/05 01:01:20;;;;;;;7.60;5.43;;;;;;;4.69;67.15;93570.69;5042457;28;20044;-76
2024/01/05 01:03:46;;;;;;;8.63;5.97;;;;;;;4.10;68.72;93553.38;5021948;28;20142;-76
2024/01/05 01:06:11;;;;;;;9.27;5.30;;;;;;;4.83;62.30;93566.28;5043680;28;20450;-77
2024/01/05 01:08:37;;;;;;;14.57;8.75;;;;;;;4.53;66.22;93561.38;5042870;28;20039;-77
2024/01/05 01:11:03;;;;;;;12.85;7.85;;;;;;;4.33;69.65;93580.03;5022919;28;20029;-76
2024/01/05 01:13:29;;;;;;;13.45;8.60;;;;;;;4.67;67.41;93551.72;5020740;28;20137;-76
2024/01/05 01:15:54;;;;;;;8.82;6.70;;;;;;;4.71;65.71;93568.53;5045897;28;20486;-76
2024/01/05 01:18:20;;;;;;;11.45;7.22;;;;;;;4.45;68.51;93581.22;5020654;28;20033;-76
2024/01/05 01:20:45;;;;;;;9.35;6.72;;;;;;;4.73;66.53;93571.69;5040778;28;20596;-78
2024/01/05 01:23:11;;;;;;;11.63;7.43;;;;;;;4.14;67.96;93537.81;5039270;28;20041;-75
2024/01/05 01:25:37;;;;;;;11.98;7.80;;;;;;;4.20;68.34;93552.50;5023683;28;20075;-77
2024/01/05 01:28:03;;;;;;;11.82;8.43;;;;;;;4.37;68.72;93570.50;5008843;28;20107;-76
2024/01/05 01:30:28;;;;;;;9.95;7.10;;;;;;;4.81;67.12;93573.69;4998264;28;20029;-75
2024/01/05 01:32:54;;;;;;;12.85;6.55;;;;;;;4.92;65.88;93579.59;5021013;28;20052;-75
2024/01/05 01:35:19;;;;;;;13.50;9.57;;;;;;;3.96;70.54;93570.09;5002974;28;20036;-75
2024/01/05 01:37:44;;;;;;;14.50;6.90;;;;;;;4.46;69.25;93571.44;5001903;28;20040;-75
2024/01/05 01:40:10;;;;;;;11.48;6.60;;;;;;;4.64;68.60;93594.44;5002190;28;20037;-76
2024/01/05 01:42:36;;;;;;;8.05;6.47;;;;;;;4.47;68.55;93588.81;5004173;28;20388;-76
2024/01/05 01:45:01;;;;;;;8.60;5.82;;;;;;;4.74;68.29;93588.28;5001237;28;21235;-76
2024/01/05 01:47:28;;;;;;;7.18;5.05;;;;;;;5.12;65.86;93595.97;4994930;28;20037;-76
2024/01/05 01:49:56;;;;;;;7.57;6.07;;;;;;;5.15;65.38;93594.59;5000294;28;20044;-76
2024/01/05 01:52:22;;;;;;;6.72;4.72;;;;;;;5.03;66.49;93587.13;5002273;28;20041;-76
2024/01/05 01:54:48;;;;;;;9.13;6.30;;;;;;;5.11;64.84;93568.03;5003129;28;20455;-76
2024/01/05 01:57:15;;;;;;;11.05;7.43;;;;;;;5.27;64.54;93602.09;5022433;28;20041;-76
2024/01/05 01:59:41;;;;;;;12.57;6.05;;;;;;;4.82;66.70;93609.50;5004885;28;20088;-77
2024/01/05 02:02:07;;;;;;;11.18;7.47;;;;;;;4.88;65.48;93586.50;5007865;28;20349;-76
2024/01/05 02:04:33;;;;;;;15.75;10.68;;;;;;;3.79;68.92;93541.56;5000443;28;20487;-76
2024/01/05 02:06:58;;;;;;;16.17;9.65;;;;;;;4.22;68.71;93619.59;4997869;28;20458;-75
2024/01/05 02:09:24;;;;;;;15.50;9.68;;;;;;;4.24;68.97;93633.25;5007569;28;20021;-78
2024/01/05 02:11:49;;;;;;;11.75;8.30;;;;;;;4.01;68.95;93591.13;5001863;28;20785;-75
2024/01/05 02:14:14;;;;;;;12.88;8.32;;;;;;;4.33;67.71;93595.81;5019141;28;20116;-77
2024/01/05 02:16:42;;;;;;;9.43;7.45;;;;;;;4.64;66.98;93626.84;5005288;28;20052;-77
2024/01/05 02:19:08;;;;;;;9.80;7.88;;;;;;;4.64;66.54;93620.78;5004897;28;20048;-76
2024/01/05 02:21:39;;;;;;;13.52;8.25;;;;;;;4.61;65.68;93595.00;5004589;28;20025;-76
2024/01/05 02:24:04;;;;;;;6.18;4.97;;;;;;;4.65;65.30;93614.44;5004369;28;20686;-77
2024/01/05 02:26:30;;;;;;;9.90;6.03;;;;;;;4.64;65.30;93618.16;5001749;28;20108;-77
2024/01/05 02:28:55;;;;;;;11.05;5.82;;;;;;;4.57;66.20;93610.56;5002907;28;20053;-77
2024/01/05 02:31:21;;;;;;;7.72;5.25;;;;;;;4.65;65.26;93590.72;4996522;28;20036;-77
2024/01/05 02:33:46;;;;;;;4.10;3.58;;;;;;;4.77;63.28;93598.25;4994160;28;20604;-77
2024/01/05 02:36:12;;;;;;;4.20;1.30;;;;;;;5.11;60.69;93599.66;4992932;28;20151;-77
2024/01/05 02:38:37;;;;;;;4.07;1.90;;;;;;;5.13;59.93;93578.28;5001163;28;24261;-77
2024/01/05 02:41:05;;;;;;;9.60;6.05;;;;;;;4.92;63.03;93622.56;5009123;28;20041;-76
2024/01/05 02:43:31;;;;;;;12.05;7.07;;;;;;;4.49;65.59;93591.97;5001418;28;20053;-77
2024/01/05 02:45:56;;;;;;;11.23;6.55;;;;;;;4.54;66.01;93615.63;4999985;28;20298;-77
2024/01/05 02:48:21;;;;;;;5.53;3.53;;;;;;;4.46;65.28;93588.03;5002964;28;20149;-76
2024/01/05 02:50:47;;;;;;;6.03;1.98;;;;;;;5.07;61.93;93603.94;4999642;28;20060;-76
2024/01/05 02:53:12;;;;;;;7.82;5.40;;;;;;;5.03;62.87;93624.00;5001968;28;20328;-76
2024/01/05 02:55:38;;;;;;;10.85;6.15;;;;;;;4.77;65.32;93630.66;5004469;28;20519;-77
2024/01/05 02:58:04;;;;;;;12.65;6.22;;;;;;;4.98;64.86;93631.19;5002968;28;20487;-76
2024/01/05 03:00:29;;;;;;;8.13;5.03;;;;;;;5.07;63.62;93609.19;5003612;28;20025;-76
2024/01/05 03:02:56;;;;;;;9.48;5.57;;;;;;;4.88;63.82;93637.38;5004737;28;20730;-76
2024/01/05 03:05:21;;;;;;;11.18;7.57;;;;;;;4.50;65.27;93612.00;5003280;28;20038;-76
2024/01/05 03:07:47;;;;;;;10.73;7.50;;;;;;;4.87;63.67;93630.53;5000468;28;20192;-77
2024/01/05 03:10:12;;;;;;;11.13;7.07;;;;;;;4.75;64.79;93640.66;5000076;28;20056;-77
2024/01/05 03:12:38;;;;;;;12.30;6.88;;;;;;;4.74;64.34;93647.03;5004816;28;20025;-76
2024/01/05 03:15:04;;;;;;;9.73;5.78;;;;;;;4.20;67.38;93653.31;5001495;28;20490;-77
2024/01/05 03:17:30;;;;;;;10.82;7.22;;;;;;;4.12;68.60;93648.63;5013153;28;20438;-76
2024/01/05 03:19:55;;;;;;;9.75;6.05;;;;;;;4.72;65.22;93653.63;5004235;28;20041;-76
2024/01/05 03:22:20;;;;;;;12.23;5.97;;;;;;;4.61;64.77;93663.47;4999778;28;20406;-76
2024/01/05 03:24:46;;;;;;;14.80;9.57;;;;;;;3.35;68.46;93626.56;5004167;28;20045;-76
2024/01/05 03:27:14;;;;;;;18.95;8.85;;;;;;;4.04;68.51;93667.66;5001405;28;20053;-77
2024/01/05 03:29:40;;;;;;;14.75;8.63;;;;;;;4.31;65.60;93654.00;5001019;28;20047;-76
2024/01/05 03:32:07;;;;;;;11.55;6.88;;;;;;;4.04;66.17;93651.88;4993894;28;20465;-77
2024/01/05 03:34:32;;;;;;;9.38;6.32;;;;;;;3.94;66.93;93659.84;5002128;28;20053;-76
2024/01/05 03:36:57;;;;;;;10.32;6.50;;;;;;;3.84;67.90;93636.22;5002796;28;20124;-77
2024/01/05 03:39:25;;;;;;;9.77;6.00;;;;;;;4.15;66.95;93677.03;5000633;28;20045;-76
2024/01/05 03:41:51;;;;;;;12.23;8.02;;;;;;;3.73;68.06;93669.72;5004937;28;20037;-76
2024/01/05 03:44:20;;;;;;;12.38;8.32;;;;;;;4.12;67.11;93690.75;4991660;28;20045;-76
2024/01/05 03:46:52;;;;;;;9.77;7.82;;;;;;;4.31;65.61;93690.13;5004405;28;20084;-76
2024/01/05 03:49:17;;;;;;;12.73;7.60;;;;;;;4.42;64.98;93702.09;5007414;28;20475;-77
2024/01/05 03:51:43;;;;;;;12.48;6.78;;;;;;;4.28;65.76;93684.28;5003545;28;20029;-77
2024/01/05 03:54:08;;;;;;;10.80;7.13;;;;;;;3.83;67.09;93684.63;5007772;28;20045;-77
2024/01/05 03:56:41;;;;;;;15.93;7.20;;;;;;;3.92;66.82;93683.00;5004433;28;20142;-76
2024/01/05 03:59:06;;;;;;;9.70;6.57;;;;;;;3.99;67.36;93699.25;5013363;28;20060;-76
2024/01/05 04:01:33;;;;;;;10.00;7.57;;;;;;;3.97;67.07;93695.31;5002654;28;20585;-76
2024/01/05 04:03:59;;;;;;;10.57;8.30;;;;;;;3.90;66.46;93658.81;5006036;28;20612;-76
2024/01/05 04:06:25;;;;;;;12.48;7.43;;;;;;;4.05;66.54;93694.75;5001585;28;20040;-76
2024/01/05 04:08:51;;;;;;;11.48;7.78;;;;;;;4.20;66.66;93684.91;5007409;28;20041;-76
2024/01/05 04:11:20;;;;;;;10.85;7.78;;;;;;;4.38;64.81;93704.50;5002648;28;20052;-77
2024/01/05 04:13:49;;;;;;;14.73;9.23;;;;;;;4.13;65.69;93712.59;5004270;28;20868;-77
2024/01/05 04:16:14;;;;;;;18.00;9.32;;;;;;;3.95;65.01;93648.25;5001815;28;20037;-76
2024/01/05 04:18:40;;;;;;;10.55;8.25;;;;;;;4.34;64.76;93689.56;5005716;28;20087;-76
2024/01/05 04:21:05;;;;;;;10.80;8.88;;;;;;;4.43;63.29;93677.34;5003332;28;20076;-76
2024/01/05 04:23:31;;;;;;;11.55;6.70;;;;;;;4.64;63.46;93699.81;4998404;28;20422;-75
2024/01/05 04:25:56;;;;;;;9.65;6.60;;;;;;;4.30;62.68;93667.47;5004853;28;20045;-76
2024/01/05 04:28:22;;;;;;;8.52;5.82;;;;;;;4.62;63.05;93717.72;5002072;28;20048;-76
2024/01/05 04:30:47;;;;;;;8.02;5.90;;;;;;;4.25;63.86;93671.69;4984803;28;20451;-77
2024/01/05 04:33:12;;;;;;;11.85;5.80;;;;;;;4.62;62.46;93715.09;5002437;28;20102;-77
2024/01/05 04:35:38;;;;;;;7.20;5.63;;;;;;;4.47;63.41;93699.44;5000639;28;20038;-77
2024/01/05 04:38:03;;;;;;;11.10;7.00;;;;;;;3.92;65.77;93727.72;4996627;28;20402;-77
2024/01/05 04:40:29;;;;;;;8.90;7.10;;;;;;;4.27;64.52;93730.09;5004446;28;20300;-77
2024/01/05 04:42:54;;;;;;;13.88;7.18;;;;;;;4.26;64.53;93741.69;5006016;28;20076;-75
2024/01/05 04:45:20;;;;;;;10.93;7.15;;;;;;;4.35;63.94;93730.63;5005894;28;20383;-76
2024/01/05 04:47:48;;;;;;;13.50;6.95;;;;;;;4.63;61.58;93740.38;4997255;28;20034;-75
2024/01/05 04:50:25;;;;;;;10.30;6.78;;;;;;;4.52;62.60;93738.88;4989093;28;20207;-77
2024/01/05 04:52:51;;;;;;;9.98;6.03;;;;;;;4.62;62.46;93744.06;5006441;28;30570;-77
2024/01/05 04:55:16;;;;;;;9.25;5.82;;;;;;;4.64;62.38;93736.69;5012348;28;20033;-77
2024/01/05 04:57:42;;;;;;;8.60;6.18;;;;;;;4.75;62.04;93738.16;5002337;28;20025;-77
2024/01/05 05:00:10;;;;;;;7.55;5.57;;;;;;;4.69;61.27;93739.28;5003086;28;20037;-77
2024/01/05 05:02:36;;;;;;;11.50;6.55;;;;;;;4.56;61.68;93724.09;5003232;28;20037;-78
2024/01/05 05:05:01;;;;;;;8.73;6.78;;;;;;;4.77;61.39;93759.75;5007925;28;20414;-76
2024/01/05 05:07:27;;;;;;;6.82;5.65;;;;;;;4.55;61.31;93717.28;4999740;28;20119;-77
2024/01/05 05:09:52;;;;;;;8.18;5.50;;;;;;;4.75;61.22;93763.72;5008039;28;20021;-77
2024/01/05 05:12:17;;;;;;;8.70;5.53;;;;;;;4.52;62.79;93773.13;5010148;28;20139;-75
2024/01/05 05:14:43;;;;;;;8.98;5.40;;;;;;;4.76;62.19;93771.34;5005704;28;20037;-76
2024/01/05 05:17:09;;;;;;;9.98;7.88;;;;;;;4.77;61.46;93764.22;4991039;28;20045;-76
2024/01/05 05:19:34;;;;;;;9.77;6.68;;;;;;;4.78;61.26;93763.97;4996558;28;20084;-76
2024/01/05 05:22:00;;;;;;;23.15;14.63;;;;;;;4.83;61.19;93789.47;4986455;28;21010;-76
2024/01/05 05:24:25;;;;;;;16.70;9.32;;;;;;;4.68;62.11;93778.00;5001543;28;20031;-76
2024/01/05 05:26:50;;;;;;;20.95;12.73;;;;;;;4.88;61.77;93782.31;5008713;28;20507;-75
2024/01/05 05:29:16;;;;;;;21.08;10.70;;;;;;;4.43;62.41;93759.78;5014213;28;21255;-75
2024/01/05 05:31:41;;;;;;;16.25;10.18;;;;;;;4.69;62.49;93770.88;5007984;28;20033;-76
2024/01/05 05:34:07;;;;;;;11.63;8.05;;;;;;;4.26;63.51;93748.81;5023314;28;20033;-75
2024/01/05 05:36:32;;;;;;;10.77;7.78;;;;;;;4.57;63.31;93788.88;5024780;28;20520;-74
2024/01/05 05:38:57;;;;;;;10.10;7.03;;;;;;;4.21;62.78;93733.84;5005630;28;20418;-75
2024/01/05 05:41:23;;;;;;;9.50;6.13;;;;;;;4.56;62.50;93782.03;5024817;28;20211;-76
2024/01/05 05:43:48;;;;;;;9.93;6.57;;;;;;;4.52;63.15;93791.56;5023382;28;20072;-75
2024/01/05 05:46:14;;;;;;;13.93;7.45;;;;;;;3.90;63.99;93727.22;5022668;28;20039;-75
2024/01/05 05:48:39;;;;;;;9.15;6.35;;;;;;;3.97;66.14;93801.38;5025058;28;20070;-74
2024/01/05 05:51:05;;;;;;;12.98;6.45;;;;;;;4.42;64.73;93799.53;5023029;28;20076;-76
2024/01/05 05:53:30;;;;;;;9.50;6.22;;;;;;;4.49;62.82;93807.94;5023384;28;20515;-75
2024/01/05 05:55:58;;;;;;;7.45;5.47;;;;;;;4.66;62.56;93811.72;5037554;28;20036;-76
2024/01/05 05:58:24;;;;;;;6.15;5.30;;;;;;;4.76;61.80;93810.84;5025548;28;20041;-76
2024/01/05 06:00:49;;;;;;;12.80;6.50;;;;;;;4.24;63.90;93812.28;5039734;28;20029;-76
2024/01/05 06:03:15;;;;;;;9.63;6.28;;;;;;;4.25;64.01;93792.78;5026572;28;20514;-76
2024/01/05 06:05:41;;;;;;;8.57;5.72;;;;;;;4.62;62.76;93807.28;5005703;28;20036;-76
2024/01/05 06:08:06;;;;;;;10.57;6.35;;;;;;;4.67;62.83;93826.47;5007950;28;20513;-76
2024/01/05 06:10:32;;;;;;;11.10;6.40;;;;;;;4.65;62.25;93793.56;5005399;28;20076;-76
2024/01/05 06:12:57;;;;;;;10.35;7.10;;;;;;;4.82;61.78;93801.84;5023220;28;20025;-75
2024/01/05 06:15:22;;;;;;;14.02;9.57;;;;;;;4.83;61.60;93806.06;5024703;28;20077;-75
2024/01/05 06:17:48;;;;;;;12.48;9.15;;;;;;;4.98;61.19;93816.47;4998820;28;20529;-77
2024/01/05 06:20:13;;;;;;;13.25;7.20;;;;;;;5.03;60.63;93819.06;5024719;28;20037;-77
2024/01/05 06:22:39;;;;;;;13.18;7.53;;;;;;;4.97;60.75;93814.91;5023988;28;20041;-76
2024/01/05 06:25:04;;;;;;;16.63;8.20;;;;;;;4.95;60.47;93801.19;5025591;28;20382;-77
2024/01/05 06:27:30;;;;;;;11.73;7.07;;;;;;;4.90;60.78;93803.88;5026561;28;20215;-76
2024/01/05 06:29:56;;;;;;;16.33;8.30;;;;;;;4.96;60.42;93808.06;5020529;28;20029;-76
2024/01/05 06:32:22;;;;;;;14.68;7.88;;;;;;;5.03;60.68;93832.25;5022951;28;20045;-76
2024/01/05 06:34:47;;;;;;;12.38;7.15;;;;;;;5.10;60.41;93830.06;5024530;28;20037;-77
2024/01/05 06:37:13;;;;;;;10.40;6.15;;;;;;;4.94;60.19;93804.91;5008664;28;20888;-76
2024/01/05 06:39:38;;;;;;;8.60;5.18;;;;;;;5.18;60.02;93835.81;5023783;28;20053;-77
2024/01/05 06:42:04;;;;;;;10.90;6.75;;;;;;;5.22;60.12;93837.59;5026590;28;20124;-75
2024/01/05 06:44:29;;;;;;;10.27;5.78;;;;;;;5.28;59.96;93838.34;5024372;28;20517;-75
2024/01/05 06:46:54;;;;;;;14.50;8.32;;;;;;;4.97;60.34;93825.44;5024225;28;20049;-76
2024/01/05 06:49:20;;;;;;;10.95;7.45;;;;;;;5.12;60.83;93827.16;5023606;28;20136;-75
2024/01/05 06:51:45;;;;;;;10.00;5.80;;;;;;;5.14;60.49;93838.97;5024850;28;20564;-76
2024/01/05 06:54:13;;;;;;;9.68;5.85;;;;;;;4.52;60.48;93733.63;5021805;28;20053;-75
2024/01/05 06:56:42;;;;;;;13.55;6.40;;;;;;;5.17;61.05;93823.69;5020286;28;20398;-75
2024/01/05 06:59:08;;;;;;;15.60;7.68;;;;;;;5.17;60.81;93794.69;5019766;28;20052;-77
2024/01/05 07:01:33;;;;;;;10.23;6.25;;;;;;;5.45;60.31;93830.78;5023397;28;20045;-77
2024/01/05 07:03:59;;;;;;;14.40;6.45;;;;;;;5.25;60.47;93801.97;5018458;28;20036;-77
2024/01/05 07:06:26;;;;;;;15.15;7.82;;;;;;;5.43;60.53;93835.56;5023928;28;20057;-76
2024/01/05 07:08:51;;;;;;;11.57;7.18;;;;;;;5.49;60.90;93826.50;5036833;28;20033;-78
2024/01/05 07:11:24;;;;;;;16.73;8.00;;;;;;;5.51;60.72;93816.47;5019508;28;20086;-76
2024/01/05 07:13:50;;;;;;;14.25;8.88;;;;;;;5.40;60.66;93804.44;5035017;28;20037;-77
2024/01/05 07:16:19;;;;;;;17.02;8.75;;;;;;;5.20;62.08;93828.38;5034539;28;20445;-77
2024/01/05 07:18:46;;;;;;;20.95;9.30;;;;;;;5.20;63.48;93828.38;5018212;28;20375;-76
2024/01/05 07:21:16;;;;;;;10.98;7.55;;;;;;;5.44;62.25;93816.78;5003237;28;20450;-76
2024/01/05 07:23:42;;;;;;;18.60;9.82;;;;;;;5.39;62.07;93827.41;5002095;28;20067;-76
2024/01/05 07:26:09;;;;;;;16.95;9.35;;;;;;;5.41;62.80;93835.03;5023623;28;20075;-75
2024/01/05 07:28:34;;;;;;;11.90;7.60;;;;;;;5.35;62.74;93828.25;4998714;28;20045;-75
2024/01/05 07:31:04;;;;;;;11.75;8.02;;;;;;;5.51;61.92;93819.91;5017310;28;20048;-75
2024/01/05 07:33:30;;;;;;;15.65;6.75;;;;;;;5.71;61.20;93815.44;4997473;28;20032;-76
2024/01/05 07:35:55;;;;;;;12.98;7.25;;;;;;;5.81;60.41;93813.47;5000426;28;20473;-77
2024/01/05 07:38:21;;;;;;;5.15;4.60;;;;;;;5.85;60.54;93811.84;4979667;28;20434;-76
2024/01/05 07:40:46;;;;;;;7.03;4.30;;;;;;;5.98;60.27;93821.69;4997274;28;20083;-75
2024/01/05 07:43:12;;;;;;;5.50;3.20;;;;;;;5.63;60.67;93831.91;5011150;28;21145;-77
2024/01/05 07:45:38;;;;;;;5.65;4.32;;;;;;;5.24;63.39;93830.19;5015616;28;20044;-75
2024/01/05 07:48:04;;;;;;;9.35;4.07;;;;;;;5.29;62.87;93803.75;5018903;28;20741;-75
2024/01/05 07:50:31;;;;;;;8.48;3.92;;;;;;;5.23;63.72;93838.41;5014281;28;20045;-75
2024/01/05 07:52:56;;;;;;;9.30;5.32;;;;;;;4.79;65.07;93844.59;5000975;28;20051;-76
2024/01/05 07:55:22;;;;;;;7.85;4.78;;;;;;;5.12;64.63;93822.66;5003972;28;20059;-76
2024/01/05 07:57:47;;;;;;;7.18;4.10;;;;;;;5.44;62.75;93832.63;5016721;28;20037;-75
2024/01/05 08:00:13;;;;;;;9.95;5.88;;;;;;;5.56;62.66;93833.03;5002914;28;20063;-76
2024/01/05 08:02:39;;;;;;;5.60;4.18;;;;;;;5.35;62.83;93825.59;5016149;28;20041;-76
2024/01/05 08:05:05;;;;;;;10.55;5.10;;;;;;;5.34;62.83;93835.34;5019496;28;20041;-75
2024/01/05 08:07:30;;;;;;;8.48;4.43;;;;;;;5.66;62.97;93845.31;5017785;28;20120;-77
2024/01/05 08:09:56;;;;;;;6.32;4.00;;;;;;;5.29;62.85;93839.91;5001315;28;20033;-76
2024/01/05 08:12:21;;;;;;;6.38;4.43;;;;;;;5.63;62.91;93850.38;5003007;28;20075;-77
2024/01/05 08:14:47;;;;;;;8.40;3.80;;;;;;;5.55;62.51;93814.84;5017838;28;20041;-75
2024/01/05 08:17:13;;;;;;;9.70;6.97;;;;;;;5.70;60.94;93814.66;4999739;28;20055;-79
2024/01/05 08:19:39;;;;;;;11.43;5.15;;;;;;;5.68;61.29;93814.16;5019721;28;20041;-78
2024/01/05 08:22:05;;;;;;;7.78;4.20;;;;;;;5.92;60.85;93846.59;5014001;28;20029;-75
2024/01/05 08:24:30;;;;;;;9.25;4.03;;;;;;;5.72;60.79;93849.47;5020748;28;20086;-76
2024/01/05 08:26:56;;;;;;;11.68;4.88;;;;;;;5.89;60.92;93836.59;4999342;28;20049;-76
2024/01/05 08:29:22;;;;;;;11.25;4.57;;;;;;;6.21;60.47;93864.22;5014689;28;20188;-76
2024/01/05 08:31:49;;;;;;;9.43;4.50;;;;;;;6.17;60.18;93868.47;5009124;28;20486;-78
2024/01/05 08:34:15;;;;;;;14.35;5.47;;;;;;;6.28;60.14;93859.38;5010044;28;20040;-77
2024/01/05 08:36:41;;;;;;;12.85;5.68;;;;;;;6.12;60.20;93873.81;5015299;28;21348;-75
2024/01/05 08:39:06;;;;;;;10.35;4.53;;;;;;;6.06;60.64;93859.13;5010043;28;20072;-79
2024/01/05 08:41:32;;;;;;;10.55;5.38;;;;;;;6.12;60.65;93827.06;5014495;28;20052;-76
2024/01/05 08:43:58;;;;;;;4.63;3.70;;;;;;;5.64;61.13;93871.19;4997533;28;20092;-75
2024/01/05 08:46:27;;;;;;;6.72;3.42;;;;;;;5.73;61.38;93861.59;5016412;28;20175;-75
2024/01/05 08:48:53;;;;;;;4.88;3.25;;;;;;;5.70;61.60;93832.34;5013220;28;20494;-77
2024/01/05 08:51:18;;;;;;;7.22;3.38;;;;;;;6.32;60.22;93839.22;4995700;28;20045;-75
2024/01/05 08:53:44;;;;;;;13.75;4.35;;;;;;;5.96;60.11;93841.53;4999520;28;20419;-78
2024/01/05 08:56:10;;;;;;;6.28;2.78;;;;;;;5.59;61.37;93858.06;5015165;28;20048;-77
2024/01/05 08:58:36;;;;;;;10.18;4.43;;;;;;;4.99;62.71;93794.31;4992828;28;20342;-76
2024/01/05 09:01:01;;;;;;;8.63;6.30;;;;;;;5.51;62.70;93845.50;4995366;28;20119;-77
2024/01/05 09:03:27;;;;;;;11.38;6.82;;;;;;;5.62;62.00;93809.22;5014863;28;20379;-76
2024/01/05 09:05:53;;;;;;;9.65;3.67;;;;;;;5.78;60.66;93844.91;5013943;28;20036;-76
2024/01/05 09:08:18;;;;;;;14.13;5.35;;;;;;;5.77;61.80;93849.44;5000986;28;20060;-77
2024/01/05 09:10:44;;;;;;;9.05;3.88;;;;;;;5.73;61.33;93840.47;5018535;28;20052;-77
2024/01/05 09:13:09;;;;;;;11.10;6.32;;;;;;;5.67;61.36;93817.09;5021070;28;20029;-77
2024/01/05 09:15:35;;;;;;;11.75;5.70;;;;;;;6.27;60.72;93848.00;5019949;28;20048;-75
2024/01/05 09:18:00;;;;;;;10.15;5.05;;;;;;;6.03;61.17;93841.97;5006571;28;20049;-76
2024/01/05 09:20:26;;;;;;;6.22;4.63;;;;;;;5.97;61.55;93814.84;4999340;28;20435;-76
2024/01/05 09:22:51;;;;;;;10.25;6.00;;;;;;;5.75;61.74;93795.34;5018749;28;20551;-77
2024/01/05 09:25:17;;;;;;;11.35;4.97;;;;;;;5.73;61.74;93810.66;5016361;28;21030;-77
2024/01/05 09:27:42;;;;;;;9.75;4.65;;;;;;;6.04;61.76;93832.97;4993851;28;20134;-76
2024/01/05 09:30:08;;;;;;;10.02;4.32;;;;;;;6.21;61.32;93833.31;5009149;28;20123;-75
2024/01/05 09:32:33;;;;;;;9.35;4.75;;;;;;;6.04;60.70;93838.25;5018136;28;20041;-74
2024/01/05 09:34:59;;;;;;;6.93;3.75;;;;;;;6.33;59.76;93838.16;5016116;28;20460;-75
2024/01/05 09:37:24;;;;;;;6.25;4.18;;;;;;;6.58;58.94;93840.47;5019617;28;20064;-75
2024/01/05 09:39:49;;;;;;;8.98;4.38;;;;;;;6.43;58.97;93843.31;5017523;28;20457;-75
2024/01/05 09:42:15;;;;;;;8.93;4.50;;;;;;;6.57;58.91;93846.81;5017329;28;20033;-76
2024/01/05 09:44:42;;;;;;;6.40;3.83;;;;;;;6.28;59.38;93832.97;5018079;28;20319;-76
2024/01/05 09:47:08;;;;;;;13.20;4.82;;;;;;;6.75;58.54;93848.63;5011547;28;20092;-75
2024/01/05 09:49:37;;;;;;;11.90;5.82;;;;;;;6.66;58.63;93846.94;5020187;28;20160;-75
2024/01/05 09:52:02;;;;;;;10.75;5.35;;;;;;;6.42;60.53;93857.59;5012798;28;20090;-76
2024/01/05 09:54:28;;;;;;;8.32;5.53;;;;;;;6.93;58.66;93855.00;5018529;28;20472;-75
2024/01/05 09:56:54;;;;;;;11.50;4.82;;;;;;;7.32;57.77;93845.88;5021901;28;20037;-75
2024/01/05 09:59:20;;;;;;;14.48;5.40;;;;;;;7.20;57.34;93823.31;5016747;28;20045;-76
2024/01/05 10:01:50;;;;;;;10.10;4.68;;;;;;;6.95;58.17;93830.88;5025144;28;20471;-77
2024/01/05 10:04:15;;;;;;;9.38;5.53;;;;;;;6.99;58.86;93823.97;5021597;28;20665;-77
2024/01/05 10:06:40;;;;;;;10.50;5.10;;;;;;;7.31;58.04;93823.94;5017975;28;20398;-77
2024/01/05 10:09:06;;;;;;;9.65;5.60;;;;;;;7.12;58.07;93831.16;5017790;28;20423;-77
2024/01/05 10:11:34;;;;;;;14.90;6.18;;;;;;;7.07;58.09;93823.28;5020029;28;20052;-76
2024/01/05 10:14:01;;;;;;;8.73;5.32;;;;;;;7.17;58.41;93796.66;5019208;28;20107;-76
2024/01/05 10:16:34;;;;;;;15.38;5.90;;;;;;;7.71;56.67;93802.00;5019156;28;20216;-75
2024/01/05 10:19:13;;;;;;;10.10;5.15;;;;;;;7.43;57.09;93826.91;5021879;28;20106;-75
2024/01/05 10:21:40;;;;;;;16.33;6.95;;;;;;;7.53;56.44;93807.41;5011868;28;20035;-75
2024/01/05 10:24:14;;;;;;;11.95;6.35;;;;;;;7.13;57.75;93807.06;5019695;28;20200;-75
2024/01/05 10:26:45;;;;;;;13.07;6.97;;;;;;;7.04;58.66;93815.94;5016842;28;20112;-75
2024/01/05 10:29:14;;;;;;;14.70;6.70;;;;;;;7.38;57.79;93787.31;5015538;28;20279;-75
2024/01/05 10:31:40;;;;;;;15.73;6.03;;;;;;;7.83;57.30;93793.56;5049952;28;20265;-76
2024/01/05 10:34:07;;;;;;;8.02;5.80;;;;;;;7.56;56.93;93799.66;5015927;28;20036;-76
2024/01/05 10:36:33;;;;;;;13.88;6.32;;;;;;;7.18;57.94;93779.72;5012595;28;20024;-76
2024/01/05 10:38:58;;;;;;;13.05;5.90;;;;;;;7.51;57.34;93785.72;5017141;28;20537;-75
2024/01/05 10:41:24;;;;;;;13.32;6.43;;;;;;;7.03;59.20;93775.50;5011596;28;20049;-75
2024/01/05 10:43:50;;;;;;;11.30;5.72;;;;;;;7.13;58.94;93791.19;5004075;28;24957;-75
2024/01/05 10:46:18;;;;;;;16.70;7.35;;;;;;;7.21;58.95;93790.50;5015830;28;20028;-75
2024/01/05 10:48:44;;;;;;;13.85;7.65;;;;;;;7.38;57.84;93800.53;5015977;28;20446;-76
2024/01/05 10:51:16;;;;;;;42.00;9.55;;;;;;;7.22;58.64;93791.28;5016987;28;20243;-74
2024/01/05 10:53:43;;;;;;;16.98;10.15;;;;;;;6.97;59.57;93791.72;5005074;28;20046;-75
2024/01/05 10:56:09;;;;;;;18.58;8.02;;;;;;;6.94;57.91;93779.91;5007425;28;20514;-74
2024/01/05 10:58:35;;;;;;;11.50;7.80;;;;;;;7.16;57.71;93779.22;5016504;28;20049;-76
2024/01/05 11:01:02;;;;;;;16.65;10.52;;;;;;;7.29;58.25;93783.75;5015654;28;20048;-76
2024/01/05 11:03:40;;;;;;;25.48;10.88;;;;;;;7.90;57.41;93782.59;5016296;28;20351;-75
2024/01/05 11:06:08;;;;;;;14.60;10.15;;;;;;;7.69;56.17;93772.38;5015327;28;20495;-75
2024/01/05 11:08:52;;;;;;;14.00;9.70;;;;;;;7.36;56.25;93772.78;5008251;28;20056;-76
2024/01/05 11:11:43;;;;;;;14.43;7.70;;;;;;;7.45;55.65;93769.16;5004330;28;20045;-75
2024/01/05 11:14:19;;;;;;;15.70;6.85;;;;;;;7.51;54.65;93769.84;5010453;28;20172;-75
2024/01/05 11:17:21;;;;;;;17.80;7.90;;;;;;;7.49;56.13;93756.91;5001566;28;20278;-75
2024/01/05 11:20:26;;;;;;;13.68;7.10;;;;;;;7.62;55.27;93758.00;5007098;28;20127;-74
2024/01/05 11:22:52;;;;;;;12.07;6.25;;;;;;;7.33;55.78;93750.34;5011586;28;20041;-77
2024/01/05 11:25:18;;;;;;;14.15;5.65;;;;;;;7.25;55.79;93724.56;5014451;28;20039;-77
2024/01/05 11:27:46;;;;;;;27.25;6.80;;;;;;;7.59;55.40;93748.75;5013108;28;20053;-77
2024/01/05 11:30:12;;;;;;;13.88;5.10;;;;;;;7.50;54.85;93739.94;5014626;28;20041;-76
2024/01/05 11:32:47;;;;;;;9.82;5.22;;;;;;;7.47;53.93;93753.78;5005267;28;20032;-76